Language: 


Des rapports , des résumés tant et plus, au choix de chacun....


Données Historiques de Météogheer
Journalier Rapport pour Février 13, 2017 Unitée:  Les deux    Impériale   Métrique
Suivant Jour »
Journalier Hebdomadaire Mensuel Annuel Sur mesure
  Max: Min: Moyenne:
Température: 51.3 °F /  10.7 °C 34.9 °F /  1.6 °C 41.2 °F /  5.1 °C
Point de rosée: 38.5 °F /  3.6 °C 31.1 °F /  -0.5 °C 35.1 °F /  1.7 °C
Humidité: 96% 55% 80%
Vent: 14.8mph /  23.8km/h - 7mph /  11.2km/h
Rafales: 17.4mph /  28.0km/h - -
Vent- - East
Pression: 30.2 in /  1023.9 hPa 30.1 in /  1019.9 hPa -
Pluie: 0 in /  0.0 mm    
Historical Graphs
 
 
Données tabulaires pour Février 13, 2017
Heure Température Point de rosée Pression Vent Vent Rafales Humidité Pluie Taux (Horaire) Conditions
00:00 39.4 °F /  4.1 °C 38.5 °F /  3.6 °C 30.2in /  1021.9hPa ENE 5.6mph /  9.0km/h 8.7mph /  14.0km/h 96% 0in /  0.0mm
00:05 39.2 °F /  4.0 °C 38.1 °F /  3.4 °C 30.2in /  1021.9hPa ENE 5.8mph /  9.3km/h 8.7mph /  14.0km/h 96% 0in /  0.0mm
00:10 39.2 °F /  4.0 °C 38.1 °F /  3.4 °C 30.2in /  1022.9hPa East 7.8mph /  12.6km/h 8.1mph /  13.0km/h 96% 0in /  0.0mm
00:15 39.2 °F /  4.0 °C 38.1 °F /  3.4 °C 30.2in /  1022.9hPa NE 5.6mph /  9.0km/h 8.1mph /  13.0km/h 96% 0in /  0.0mm
00:20 39.2 °F /  4.0 °C 38.1 °F /  3.4 °C 30.2in /  1022.9hPa ENE 6.5mph /  10.5km/h 7.8mph /  12.6km/h 96% 0in /  0.0mm
00:25 39 °F /  3.9 °C 37.9 °F /  3.3 °C 30.2in /  1022.9hPa ENE 5.8mph /  9.3km/h 7.6mph /  12.2km/h 96% 0in /  0.0mm
00:30 39 °F /  3.9 °C 37.8 °F /  3.2 °C 30.2in /  1022.9hPa NE 5.4mph /  8.7km/h 8.7mph /  14.0km/h 95% 0in /  0.0mm
00:35 39 °F /  3.9 °C 37.8 °F /  3.2 °C 30.2in /  1022.9hPa ENE 5.6mph /  9.0km/h 8.7mph /  14.0km/h 95% 0in /  0.0mm
00:40 38.8 °F /  3.8 °C 37.8 °F /  3.2 °C 30.2in /  1022.9hPa ENE 5.6mph /  9.0km/h 7.4mph /  11.9km/h 96% 0in /  0.0mm
00:45 38.7 °F /  3.7 °C 37.8 °F /  3.2 °C 30.2in /  1022.9hPa ENE 5.8mph /  9.3km/h 7.4mph /  11.9km/h 96% 0in /  0.0mm
00:50 38.7 °F /  3.7 °C 37.8 °F /  3.2 °C 30.2in /  1022.9hPa East 5.8mph /  9.3km/h 7.2mph /  11.6km/h 96% 0in /  0.0mm
00:55 38.5 °F /  3.6 °C 37.6 °F /  3.1 °C 30.2in /  1022.9hPa ENE 4.7mph /  7.6km/h 8.1mph /  13.0km/h 96% 0in /  0.0mm
01:00 38.5 °F /  3.6 °C 37.6 °F /  3.1 °C 30.2in /  1022.9hPa NE 5.6mph /  9.0km/h 8.1mph /  13.0km/h 96% 0in /  0.0mm
01:05 38.5 °F /  3.6 °C 37.2 °F /  2.9 °C 30.2in /  1022.9hPa ENE 3.8mph /  6.1km/h 7.6mph /  12.2km/h 95% 0in /  0.0mm
01:10 38.5 °F /  3.6 °C 37 °F /  2.8 °C 30.2in /  1022.9hPa ENE 3.6mph /  5.8km/h 6.7mph /  10.8km/h 95% 0in /  0.0mm
01:15 38.5 °F /  3.6 °C 37 °F /  2.8 °C 30.2in /  1022.9hPa ENE 4.3mph /  6.9km/h 6.7mph /  10.8km/h 95% 0in /  0.0mm
01:20 38.1 °F /  3.4 °C 36.9 °F /  2.7 °C 30.2in /  1022.9hPa ENE 4.9mph /  7.9km/h 6.3mph /  10.1km/h 95% 0in /  0.0mm
01:25 37.9 °F /  3.3 °C 36.7 °F /  2.6 °C 30.2in /  1022.9hPa ENE 4.5mph /  7.2km/h 6.5mph /  10.5km/h 95% 0in /  0.0mm
01:31 37.9 °F /  3.3 °C 36.7 °F /  2.6 °C 30.2in /  1022.9hPa ENE 5.4mph /  8.7km/h 7.2mph /  11.6km/h 95% 0in /  0.0mm
01:36 37.9 °F /  3.3 °C 37 °F /  2.8 °C 30.2in /  1022.9hPa ENE 5.8mph /  9.3km/h 8.5mph /  13.7km/h 96% 0in /  0.0mm
01:41 37.9 °F /  3.3 °C 37 °F /  2.8 °C 30.2in /  1022.9hPa ENE 5.4mph /  8.7km/h 8.5mph /  13.7km/h 96% 0in /  0.0mm
01:46 37.9 °F /  3.3 °C 37 °F /  2.8 °C 30.2in /  1022.9hPa ENE 6.3mph /  10.1km/h 7.4mph /  11.9km/h 96% 0in /  0.0mm
01:51 37.8 °F /  3.2 °C 36.5 °F /  2.5 °C 30.2in /  1022.9hPa East 5.6mph /  9.0km/h 7.4mph /  11.9km/h 95% 0in /  0.0mm
01:56 37.8 °F /  3.2 °C 36.5 °F /  2.5 °C 30.2in /  1022.9hPa ENE 4mph /  6.4km/h 6.7mph /  10.8km/h 95% 0in /  0.0mm
02:02 37.6 °F /  3.1 °C 36.3 °F /  2.4 °C 30.2in /  1022.9hPa ENE 4.9mph /  7.9km/h 6.5mph /  10.5km/h 95% 0in /  0.0mm
02:07 37.8 °F /  3.2 °C 36.9 °F /  2.7 °C 30.2in /  1022.9hPa ENE 5.4mph /  8.7km/h 6.5mph /  10.5km/h 96% 0in /  0.0mm
02:12 37.8 °F /  3.2 °C 36.9 °F /  2.7 °C 30.2in /  1022.9hPa NE 5.6mph /  9.0km/h 6.5mph /  10.5km/h 96% 0in /  0.0mm
02:17 37.6 °F /  3.1 °C 36.3 °F /  2.4 °C 30.2in /  1022.9hPa ENE 5.6mph /  9.0km/h 7.4mph /  11.9km/h 95% 0in /  0.0mm
02:22 37.6 °F /  3.1 °C 36.3 °F /  2.4 °C 30.2in /  1022.9hPa ENE 4.3mph /  6.9km/h 7.4mph /  11.9km/h 95% 0in /  0.0mm
02:27 37.6 °F /  3.1 °C 36.3 °F /  2.4 °C 30.2in /  1022.9hPa ENE 8.1mph /  13.0km/h 8.1mph /  13.0km/h 95% 0in /  0.0mm
02:32 37.6 °F /  3.1 °C 36.3 °F /  2.4 °C 30.2in /  1022.9hPa NNE 6mph /  9.7km/h 8.1mph /  13.0km/h 95% 0in /  0.0mm
02:37 37.6 °F /  3.1 °C 36.3 °F /  2.4 °C 30.2in /  1021.9hPa East 5.4mph /  8.7km/h 8.1mph /  13.0km/h 95% 0in /  0.0mm
02:42 37.8 °F /  3.2 °C 36.5 °F /  2.5 °C 30.2in /  1021.9hPa East 7.2mph /  11.6km/h 8.5mph /  13.7km/h 95% 0in /  0.0mm
02:47 37.8 °F /  3.2 °C 36.5 °F /  2.5 °C 30.2in /  1021.9hPa East 4.9mph /  7.9km/h 8.7mph /  14.0km/h 95% 0in /  0.0mm
02:52 37.8 °F /  3.2 °C 36.5 °F /  2.5 °C 30.2in /  1022.9hPa ENE 3.8mph /  6.1km/h 8.7mph /  14.0km/h 95% 0in /  0.0mm
02:57 37.8 °F /  3.2 °C 36.5 °F /  2.5 °C 30.2in /  1022.9hPa East 6.5mph /  10.5km/h 10.1mph /  16.3km/h 95% 0in /  0.0mm
03:02 37.6 °F /  3.1 °C 36.3 °F /  2.4 °C 30.2in /  1022.9hPa East 5.8mph /  9.3km/h 10.1mph /  16.3km/h 95% 0in /  0.0mm
03:07 37.6 °F /  3.1 °C 36.3 °F /  2.4 °C 30.2in /  1022.9hPa ENE 8.7mph /  14.0km/h 8.7mph /  14.0km/h 95% 0in /  0.0mm
03:12 37.6 °F /  3.1 °C 36 °F /  2.2 °C 30.2in /  1022.9hPa ENE 5.8mph /  9.3km/h 8.7mph /  14.0km/h 94% 0in /  0.0mm
03:17 37.6 °F /  3.1 °C 36 °F /  2.2 °C 30.2in /  1022.9hPa ENE 7.6mph /  12.2km/h 8.7mph /  14.0km/h 94% 0in /  0.0mm
03:22 37.6 °F /  3.1 °C 36 °F /  2.2 °C 30.2in /  1021.9hPa ENE 5.8mph /  9.3km/h 9.6mph /  15.4km/h 94% 0in /  0.0mm
03:27 37.6 °F /  3.1 °C 36 °F /  2.2 °C 30.2in /  1021.9hPa ENE 6.3mph /  10.1km/h 9.6mph /  15.4km/h 94% 0in /  0.0mm
03:32 37.2 °F /  2.9 °C 35.8 °F /  2.1 °C 30.2in /  1021.9hPa NE 7.6mph /  12.2km/h 10.7mph /  17.2km/h 94% 0in /  0.0mm
03:37 37.2 °F /  2.9 °C 35.8 °F /  2.1 °C 30.2in /  1021.9hPa ENE 5.8mph /  9.3km/h 10.7mph /  17.2km/h 94% 0in /  0.0mm
03:42 37 °F /  2.8 °C 35.4 °F /  1.9 °C 30.2in /  1021.9hPa ENE 5.4mph /  8.7km/h 8.9mph /  14.3km/h 94% 0in /  0.0mm
03:47 36.9 °F /  2.7 °C 35.4 °F /  1.9 °C 30.2in /  1021.9hPa NE 5.4mph /  8.7km/h 8.9mph /  14.3km/h 94% 0in /  0.0mm
03:52 36.9 °F /  2.7 °C 35.4 °F /  1.9 °C 30.2in /  1021.9hPa ENE 6.5mph /  10.5km/h 10.1mph /  16.3km/h 94% 0in /  0.0mm
03:57 36.9 °F /  2.7 °C 35.2 °F /  1.8 °C 30.2in /  1021.9hPa ENE 6mph /  9.7km/h 10.1mph /  16.3km/h 94% 0in /  0.0mm
04:02 36.9 °F /  2.7 °C 35.2 °F /  1.8 °C 30.2in /  1021.9hPa NE 6mph /  9.7km/h 9.6mph /  15.4km/h 94% 0in /  0.0mm
04:07 36.9 °F /  2.7 °C 35.2 °F /  1.8 °C 30.2in /  1021.9hPa ENE 6.5mph /  10.5km/h 9.6mph /  15.4km/h 94% 0in /  0.0mm
04:12 36.9 °F /  2.7 °C 35.2 °F /  1.8 °C 30.2in /  1021.9hPa ENE 6mph /  9.7km/h 10.1mph /  16.3km/h 94% 0in /  0.0mm
04:17 36.9 °F /  2.7 °C 35.2 °F /  1.8 °C 30.2in /  1021.9hPa NE 6mph /  9.7km/h 10.1mph /  16.3km/h 94% 0in /  0.0mm
04:22 36.9 °F /  2.7 °C 35.2 °F /  1.8 °C 30.2in /  1021.9hPa East 7.4mph /  11.9km/h 8.7mph /  14.0km/h 94% 0in /  0.0mm
04:27 36.9 °F /  2.7 °C 35.2 °F /  1.8 °C 30.2in /  1021.9hPa ENE 3.8mph /  6.1km/h 8.7mph /  14.0km/h 94% 0in /  0.0mm
04:32 36.7 °F /  2.6 °C 35.1 °F /  1.7 °C 30.2in /  1021.9hPa East 7.2mph /  11.6km/h 8.7mph /  14.0km/h 94% 0in /  0.0mm
04:37 36.7 °F /  2.6 °C 35.1 °F /  1.7 °C 30.2in /  1021.9hPa East 5.6mph /  9.0km/h 8.7mph /  14.0km/h 94% 0in /  0.0mm
04:42 36.7 °F /  2.6 °C 35.1 °F /  1.7 °C 30.2in /  1021.9hPa East 6mph /  9.7km/h 8.7mph /  14.0km/h 94% 0in /  0.0mm
04:47 36.7 °F /  2.6 °C 35.1 °F /  1.7 °C 30.2in /  1021.9hPa ENE 6mph /  9.7km/h 8.1mph /  13.0km/h 94% 0in /  0.0mm
04:52 36.3 °F /  2.4 °C 34.9 °F /  1.6 °C 30.2in /  1021.9hPa ENE 6mph /  9.7km/h 8.5mph /  13.7km/h 94% 0in /  0.0mm
04:57 36.3 °F /  2.4 °C 34.9 °F /  1.6 °C 30.2in /  1021.9hPa East 7.6mph /  12.2km/h 8.5mph /  13.7km/h 94% 0in /  0.0mm
05:02 36.3 °F /  2.4 °C 34.9 °F /  1.6 °C 30.2in /  1021.9hPa ENE 6.5mph /  10.5km/h 8.7mph /  14.0km/h 94% 0in /  0.0mm
05:07 36.3 °F /  2.4 °C 34.9 °F /  1.6 °C 30.2in /  1021.9hPa ENE 7.2mph /  11.6km/h 8.7mph /  14.0km/h 94% 0in /  0.0mm
05:12 36.1 °F /  2.3 °C 34.7 °F /  1.5 °C 30.2in /  1021.9hPa East 6.3mph /  10.1km/h 8.7mph /  14.0km/h 94% 0in /  0.0mm
05:17 36.1 °F /  2.3 °C 34.7 °F /  1.5 °C 30.2in /  1021.9hPa ENE 6.9mph /  11.1km/h 8.7mph /  14.0km/h 94% 0in /  0.0mm
05:23 36.1 °F /  2.3 °C 34.3 °F /  1.3 °C 30.2in /  1021.9hPa East 7.8mph /  12.6km/h 8.7mph /  14.0km/h 93% 0in /  0.0mm
05:28 36.1 °F /  2.3 °C 34.2 °F /  1.2 °C 30.2in /  1021.9hPa East 5.6mph /  9.0km/h 8.7mph /  14.0km/h 93% 0in /  0.0mm
05:33 36.1 °F /  2.3 °C 34.2 °F /  1.2 °C 30.2in /  1021.9hPa ENE 7.6mph /  12.2km/h 8.7mph /  14.0km/h 93% 0in /  0.0mm
05:38 36.1 °F /  2.3 °C 34.2 °F /  1.2 °C 30.2in /  1021.9hPa NE 5.6mph /  9.0km/h 8.7mph /  14.0km/h 93% 0in /  0.0mm
05:43 36.1 °F /  2.3 °C 34.2 °F /  1.2 °C 30.2in /  1021.9hPa ENE 7.4mph /  11.9km/h 8.5mph /  13.7km/h 93% 0in /  0.0mm
05:48 36.1 °F /  2.3 °C 34.2 °F /  1.2 °C 30.2in /  1021.9hPa NE 6.3mph /  10.1km/h 8.5mph /  13.7km/h 93% 0in /  0.0mm
05:53 36.1 °F /  2.3 °C 34.2 °F /  1.2 °C 30.2in /  1021.9hPa East 7.8mph /  12.6km/h 9.8mph /  15.8km/h 93% 0in /  0.0mm
05:58 36.1 °F /  2.3 °C 34.2 °F /  1.2 °C 30.2in /  1021.9hPa East 6mph /  9.7km/h 9.8mph /  15.8km/h 93% 0in /  0.0mm
06:03 36 °F /  2.2 °C 34.2 °F /  1.2 °C 30.2in /  1021.9hPa East 7.6mph /  12.2km/h 9.6mph /  15.4km/h 93% 0in /  0.0mm
06:08 36 °F /  2.2 °C 34.2 °F /  1.2 °C 30.2in /  1021.9hPa ENE 6mph /  9.7km/h 8.9mph /  14.3km/h 93% 0in /  0.0mm
06:13 36 °F /  2.2 °C 34.2 °F /  1.2 °C 30.2in /  1021.9hPa NE 7.8mph /  12.6km/h 12.5mph /  20.1km/h 93% 0in /  0.0mm
06:18 35.8 °F /  2.1 °C 34 °F /  1.1 °C 30.2in /  1021.9hPa East 5.8mph /  9.3km/h 12.5mph /  20.1km/h 93% 0in /  0.0mm
06:23 35.8 °F /  2.1 °C 34 °F /  1.1 °C 30.2in /  1021.9hPa NE 7.8mph /  12.6km/h 8.7mph /  14.0km/h 93% 0in /  0.0mm
06:28 35.8 °F /  2.1 °C 34 °F /  1.1 °C 30.2in /  1021.9hPa ENE 6mph /  9.7km/h 8.7mph /  14.0km/h 93% 0in /  0.0mm
06:33 35.8 °F /  2.1 °C 34 °F /  1.1 °C 30.2in /  1021.9hPa East 8.1mph /  13.0km/h 8.7mph /  14.0km/h 93% 0in /  0.0mm
06:38 35.8 °F /  2.1 °C 34 °F /  1.1 °C 30.2in /  1021.9hPa East 5.8mph /  9.3km/h 8.7mph /  14.0km/h 93% 0in /  0.0mm
06:43 35.8 °F /  2.1 °C 34 °F /  1.1 °C 30.2in /  1021.9hPa ENE 6mph /  9.7km/h 9.2mph /  14.8km/h 93% 0in /  0.0mm
06:48 35.4 °F /  1.9 °C 33.6 °F /  0.9 °C 30.2in /  1021.9hPa ENE 8.7mph /  14.0km/h 9.8mph /  15.8km/h 93% 0in /  0.0mm
06:53 35.4 °F /  1.9 °C 33.6 °F /  0.9 °C 30.2in /  1021.9hPa ENE 8.7mph /  14.0km/h 10.3mph /  16.6km/h 93% 0in /  0.0mm
06:58 35.4 °F /  1.9 °C 33.6 °F /  0.9 °C 30.2in /  1021.9hPa East 8.1mph /  13.0km/h 10.3mph /  16.6km/h 93% 0in /  0.0mm
07:03 35.4 °F /  1.9 °C 33.6 °F /  0.9 °C 30.2in /  1021.9hPa ENE 4.9mph /  7.9km/h 8.7mph /  14.0km/h 93% 0in /  0.0mm
07:08 35.4 °F /  1.9 °C 33.4 °F /  0.8 °C 30.2in /  1021.9hPa East 8.5mph /  13.7km/h 9.6mph /  15.4km/h 93% 0in /  0.0mm
07:13 35.4 °F /  1.9 °C 33.4 °F /  0.8 °C 30.2in /  1021.9hPa ENE 6.5mph /  10.5km/h 9.6mph /  15.4km/h 93% 0in /  0.0mm
07:18 35.4 °F /  1.9 °C 33.4 °F /  0.8 °C 30.2in /  1021.9hPa ENE 6mph /  9.7km/h 10.3mph /  16.6km/h 93% 0in /  0.0mm
07:23 35.4 °F /  1.9 °C 33.4 °F /  0.8 °C 30.2in /  1021.9hPa NE 6.5mph /  10.5km/h 10.3mph /  16.6km/h 93% 0in /  0.0mm
07:28 35.4 °F /  1.9 °C 33.4 °F /  0.8 °C 30.2in /  1021.9hPa East 8.7mph /  14.0km/h 11mph /  17.7km/h 93% 0in /  0.0mm
07:33 35.2 °F /  1.8 °C 33.4 °F /  0.8 °C 30.2in /  1021.9hPa ENE 7.6mph /  12.2km/h 11mph /  17.7km/h 93% 0in /  0.0mm
07:38 35.2 °F /  1.8 °C 33.4 °F /  0.8 °C 30.2in /  1021.9hPa ENE 7.8mph /  12.6km/h 10.3mph /  16.6km/h 93% 0in /  0.0mm
07:43 35.2 °F /  1.8 °C 33.4 °F /  0.8 °C 30.2in /  1021.9hPa NE 8.1mph /  13.0km/h 10.3mph /  16.6km/h 93% 0in /  0.0mm
07:48 35.1 °F /  1.7 °C 33.3 °F /  0.7 °C 30.2in /  1021.9hPa NE 8.5mph /  13.7km/h 10.3mph /  16.6km/h 93% 0in /  0.0mm
07:53 35.1 °F /  1.7 °C 33.3 °F /  0.7 °C 30.2in /  1021.9hPa East 5.4mph /  8.7km/h 10.3mph /  16.6km/h 93% 0in /  0.0mm
07:58 35.1 °F /  1.7 °C 33.3 °F /  0.7 °C 30.2in /  1021.9hPa East 4.3mph /  6.9km/h 8.5mph /  13.7km/h 93% 0in /  0.0mm
08:03 35.1 °F /  1.7 °C 33.3 °F /  0.7 °C 30.2in /  1021.9hPa East 5.4mph /  8.7km/h 8.5mph /  13.7km/h 93% 0in /  0.0mm
08:08 34.9 °F /  1.6 °C 33.1 °F /  0.6 °C 30.2in /  1022.9hPa East 5.4mph /  8.7km/h 8.5mph /  13.7km/h 93% 0in /  0.0mm
08:13 34.9 °F /  1.6 °C 33.1 °F /  0.6 °C 30.2in /  1022.9hPa East 6.5mph /  10.5km/h 8.1mph /  13.0km/h 93% 0in /  0.0mm
08:18 34.9 °F /  1.6 °C 33.1 °F /  0.6 °C 30.2in /  1022.9hPa East 4.9mph /  7.9km/h 7.8mph /  12.6km/h 93% 0in /  0.0mm
08:23 34.9 °F /  1.6 °C 33.1 °F /  0.6 °C 30.2in /  1022.9hPa NE 4.3mph /  6.9km/h 7.4mph /  11.9km/h 93% 0in /  0.0mm
08:28 35.1 °F /  1.7 °C 33.3 °F /  0.7 °C 30.2in /  1022.9hPa East 4.9mph /  7.9km/h 8.7mph /  14.0km/h 93% 0in /  0.0mm
08:33 35.1 °F /  1.7 °C 33.3 °F /  0.7 °C 30.2in /  1022.9hPa East 7.4mph /  11.9km/h 10.1mph /  16.3km/h 93% 0in /  0.0mm
08:38 35.1 °F /  1.7 °C 33.3 °F /  0.7 °C 30.2in /  1022.9hPa ENE 5.6mph /  9.0km/h 10.1mph /  16.3km/h 93% 0in /  0.0mm
08:43 35.2 °F /  1.8 °C 33.4 °F /  0.8 °C 30.2in /  1022.9hPa ENE 6mph /  9.7km/h 8.7mph /  14.0km/h 93% 0in /  0.0mm
08:48 35.4 °F /  1.9 °C 33.8 °F /  1.0 °C 30.2in /  1022.9hPa NE 8.5mph /  13.7km/h 8.9mph /  14.3km/h 94% 0in /  0.0mm
08:53 35.4 °F /  1.9 °C 33.4 °F /  0.8 °C 30.2in /  1022.9hPa ENE 5.4mph /  8.7km/h 8.9mph /  14.3km/h 93% 0in /  0.0mm
08:58 35.4 °F /  1.9 °C 33.6 °F /  0.9 °C 30.2in /  1022.9hPa East 6.5mph /  10.5km/h 7.8mph /  12.6km/h 93% 0in /  0.0mm
09:03 35.8 °F /  2.1 °C 34 °F /  1.1 °C 30.2in /  1022.9hPa ENE 7.4mph /  11.9km/h 8.1mph /  13.0km/h 93% 0in /  0.0mm
09:08 36 °F /  2.2 °C 34.2 °F /  1.2 °C 30.2in /  1022.9hPa ENE 7.4mph /  11.9km/h 8.5mph /  13.7km/h 93% 0in /  0.0mm
09:13 36.1 °F /  2.3 °C 34.2 °F /  1.2 °C 30.2in /  1022.9hPa ENE 4.3mph /  6.9km/h 8.5mph /  13.7km/h 93% 0in /  0.0mm
09:18 36.3 °F /  2.4 °C 34.5 °F /  1.4 °C 30.2in /  1022.9hPa East 5.6mph /  9.0km/h 8.5mph /  13.7km/h 93% 0in /  0.0mm
09:23 36.7 °F /  2.6 °C 34.5 °F /  1.4 °C 30.2in /  1022.9hPa ENE 6.3mph /  10.1km/h 8.5mph /  13.7km/h 92% 0in /  0.0mm
09:28 36.9 °F /  2.7 °C 34.7 °F /  1.5 °C 30.2in /  1022.9hPa East 6.3mph /  10.1km/h 8.5mph /  13.7km/h 92% 0in /  0.0mm
09:33 36.9 °F /  2.7 °C 34.5 °F /  1.4 °C 30.2in /  1022.9hPa ENE 6mph /  9.7km/h 8.5mph /  13.7km/h 91% 0in /  0.0mm
09:38 37 °F /  2.8 °C 34.5 °F /  1.4 °C 30.2in /  1022.9hPa East 6mph /  9.7km/h 8.7mph /  14.0km/h 90% 0in /  0.0mm
09:43 37.6 °F /  3.1 °C 34.5 °F /  1.4 °C 30.2in /  1022.9hPa East 6mph /  9.7km/h 8.9mph /  14.3km/h 89% 0in /  0.0mm
09:48 37.6 °F /  3.1 °C 34.5 °F /  1.4 °C 30.2in /  1022.9hPa East 8.1mph /  13.0km/h 11.2mph /  18.0km/h 89% 0in /  0.0mm
09:53 37.8 °F /  3.2 °C 34.9 °F /  1.6 °C 30.2in /  1022.9hPa East 5.8mph /  9.3km/h 11.2mph /  18.0km/h 89% 0in /  0.0mm
09:58 37.9 °F /  3.3 °C 34.9 °F /  1.6 °C 30.2in /  1022.9hPa East 5.4mph /  8.7km/h 10.3mph /  16.6km/h 88% 0in /  0.0mm
10:03 38.1 °F /  3.4 °C 34.9 °F /  1.6 °C 30.2in /  1022.9hPa ENE 6.5mph /  10.5km/h 10.3mph /  16.6km/h 88% 0in /  0.0mm
10:08 38.5 °F /  3.6 °C 35.1 °F /  1.7 °C 30.2in /  1022.9hPa East 9.2mph /  14.8km/h 10.1mph /  16.3km/h 88% 0in /  0.0mm
10:13 38.7 °F /  3.7 °C 35.2 °F /  1.8 °C 30.2in /  1022.9hPa East 5.8mph /  9.3km/h 10.5mph /  16.9km/h 87% 0in /  0.0mm
10:18 39 °F /  3.9 °C 35.4 °F /  1.9 °C 30.2in /  1022.9hPa ENE 4.3mph /  6.9km/h 10.5mph /  16.9km/h 87% 0in /  0.0mm
10:23 39.4 °F /  4.1 °C 36 °F /  2.2 °C 30.2in /  1022.9hPa ENE 6.3mph /  10.1km/h 9.8mph /  15.8km/h 87% 0in /  0.0mm
10:28 39.4 °F /  4.1 °C 35.6 °F /  2.0 °C 30.2in /  1022.9hPa East 5.6mph /  9.0km/h 9.8mph /  15.8km/h 86% 0in /  0.0mm
10:33 39.9 °F /  4.4 °C 36.1 °F /  2.3 °C 30.2in /  1022.9hPa East 5.4mph /  8.7km/h 9.2mph /  14.8km/h 86% 0in /  0.0mm
10:38 40.5 °F /  4.7 °C 36.7 °F /  2.6 °C 30.2in /  1022.9hPa ENE 5.8mph /  9.3km/h 8.5mph /  13.7km/h 86% 0in /  0.0mm
10:43 40.6 °F /  4.8 °C 36.5 °F /  2.5 °C 30.2in /  1022.9hPa ENE 5.8mph /  9.3km/h 8.7mph /  14.0km/h 85% 0in /  0.0mm
10:48 41 °F /  5.0 °C 36.9 °F /  2.7 °C 30.2in /  1022.9hPa ENE 8.5mph /  13.7km/h 8.7mph /  14.0km/h 85% 0in /  0.0mm
10:53 41.2 °F /  5.1 °C 36.7 °F /  2.6 °C 30.2in /  1022.9hPa NE 7.6mph /  12.2km/h 8.5mph /  13.7km/h 84% 0in /  0.0mm
10:58 41.2 °F /  5.1 °C 36.1 °F /  2.3 °C 30.2in /  1022.9hPa East 7.4mph /  11.9km/h 10.5mph /  16.9km/h 82% 0in /  0.0mm
11:03 41.4 °F /  5.2 °C 36 °F /  2.2 °C 30.2in /  1022.9hPa East 6.9mph /  11.1km/h 10.5mph /  16.9km/h 81% 0in /  0.0mm
11:08 41.7 °F /  5.4 °C 36.7 °F /  2.6 °C 30.2in /  1022.9hPa East 4.9mph /  7.9km/h 10.3mph /  16.6km/h 82% 0in /  0.0mm
11:13 41.9 °F /  5.5 °C 36.5 °F /  2.5 °C 30.2in /  1022.9hPa NE 6mph /  9.7km/h 8.7mph /  14.0km/h 81% 0in /  0.0mm
11:18 42.3 °F /  5.7 °C 36.5 °F /  2.5 °C 30.2in /  1022.9hPa ESE 8.5mph /  13.7km/h 8.7mph /  14.0km/h 80% 0in /  0.0mm
11:24 42.4 °F /  5.8 °C 36.3 °F /  2.4 °C 30.2in /  1022.9hPa ESE 7.8mph /  12.6km/h 10.1mph /  16.3km/h 79% 0in /  0.0mm
11:29 42.8 °F /  6.0 °C 37 °F /  2.8 °C 30.2in /  1022.9hPa East 6mph /  9.7km/h 10.1mph /  16.3km/h 80% 0in /  0.0mm
11:34 43 °F /  6.1 °C 36.5 °F /  2.5 °C 30.2in /  1022.9hPa East 8.9mph /  14.3km/h 9.6mph /  15.4km/h 78% 0in /  0.0mm
11:39 43.3 °F /  6.3 °C 36.9 °F /  2.7 °C 30.2in /  1021.9hPa NE 6.3mph /  10.1km/h 10.1mph /  16.3km/h 78% 0in /  0.0mm
11:44 43.5 °F /  6.4 °C 36.9 °F /  2.7 °C 30.2in /  1021.9hPa ESE 11mph /  17.7km/h 11mph /  17.7km/h 77% 0in /  0.0mm
11:49 44.1 °F /  6.7 °C 36.9 °F /  2.7 °C 30.2in /  1021.9hPa East 4.9mph /  7.9km/h 11mph /  17.7km/h 76% 0in /  0.0mm
11:54 44.4 °F /  6.9 °C 37.4 °F /  3.0 °C 30.2in /  1023.9hPa East 5.4mph /  8.7km/h 10.5mph /  16.9km/h 76% 0in /  0.0mm
11:59 45.1 °F /  7.3 °C 37.9 °F /  3.3 °C 30.2in /  1023.9hPa East 3.8mph /  6.1km/h 8.5mph /  13.7km/h 76% 0in /  0.0mm
12:04 45.1 °F /  7.3 °C 37.4 °F /  3.0 °C 30.2in /  1023.9hPa East 5.8mph /  9.3km/h 10.1mph /  16.3km/h 74% 0in /  0.0mm
12:09 45.7 °F /  7.6 °C 37.4 °F /  3.0 °C 30.2in /  1022.9hPa SE 7.4mph /  11.9km/h 11mph /  17.7km/h 73% 0in /  0.0mm
12:14 45.9 °F /  7.7 °C 36.9 °F /  2.7 °C 30.2in /  1022.9hPa East 7.6mph /  12.2km/h 12.1mph /  19.5km/h 71% 0in /  0.0mm
12:19 45.9 °F /  7.7 °C 37 °F /  2.8 °C 30.2in /  1022.9hPa East 9.8mph /  15.8km/h 12.1mph /  19.5km/h 71% 0in /  0.0mm
12:24 45.9 °F /  7.7 °C 36.7 °F /  2.6 °C 30.2in /  1022.9hPa ESE 10.5mph /  16.9km/h 11mph /  17.7km/h 70% 0in /  0.0mm
12:29 46.2 °F /  7.9 °C 37 °F /  2.8 °C 30.2in /  1022.9hPa East 5.8mph /  9.3km/h 11mph /  17.7km/h 70% 0in /  0.0mm
12:34 46.6 °F /  8.1 °C 37.4 °F /  3.0 °C 30.2in /  1022.9hPa East 10.5mph /  16.9km/h 10.5mph /  16.9km/h 70% 0in /  0.0mm
12:39 46.9 °F /  8.3 °C 37.2 °F /  2.9 °C 30.2in /  1021.9hPa ESE 12.8mph /  20.6km/h 12.8mph /  20.6km/h 69% 0in /  0.0mm
12:44 47.3 °F /  8.5 °C 36.9 °F /  2.7 °C 30.2in /  1021.9hPa East 5.6mph /  9.0km/h 12.8mph /  20.6km/h 67% 0in /  0.0mm
12:49 47.1 °F /  8.4 °C 36 °F /  2.2 °C 30.2in /  1021.9hPa SSE 10.5mph /  16.9km/h 13.2mph /  21.2km/h 65% 0in /  0.0mm
12:54 47.5 °F /  8.6 °C 36 °F /  2.2 °C 30.2in /  1022.9hPa East 7.8mph /  12.6km/h 13.2mph /  21.2km/h 64% 0in /  0.0mm
12:59 47.7 °F /  8.7 °C 36.1 °F /  2.3 °C 30.2in /  1022.9hPa ESE 10.5mph /  16.9km/h 13.2mph /  21.2km/h 64% 0in /  0.0mm
13:04 47.8 °F /  8.8 °C 36.3 °F /  2.4 °C 30.2in /  1022.9hPa ESE 7.6mph /  12.2km/h 13.2mph /  21.2km/h 64% 0in /  0.0mm
13:09 47.8 °F /  8.8 °C 35.4 °F /  1.9 °C 30.2in /  1021.9hPa East 6.3mph /  10.1km/h 13.2mph /  21.2km/h 62% 0in /  0.0mm
13:14 48.2 °F /  9.0 °C 36.7 °F /  2.6 °C 30.2in /  1021.9hPa East 5.6mph /  9.0km/h 13mph /  20.9km/h 64% 0in /  0.0mm
13:19 48.4 °F /  9.1 °C 36.9 °F /  2.7 °C 30.2in /  1021.9hPa East 9.6mph /  15.4km/h 10.7mph /  17.2km/h 64% 0in /  0.0mm
13:24 48.4 °F /  9.1 °C 35.6 °F /  2.0 °C 30.2in /  1021.9hPa East 7.8mph /  12.6km/h 12.8mph /  20.6km/h 61% 0in /  0.0mm
13:29 48.6 °F /  9.2 °C 36.1 °F /  2.3 °C 30.2in /  1021.9hPa East 10.3mph /  16.6km/h 12.8mph /  20.6km/h 62% 0in /  0.0mm
13:34 48.7 °F /  9.3 °C 36.3 °F /  2.4 °C 30.2in /  1021.9hPa East 8.1mph /  13.0km/h 13.2mph /  21.2km/h 62% 0in /  0.0mm
13:39 49.1 °F /  9.5 °C 36.7 °F /  2.6 °C 30.2in /  1021.9hPa East 10.3mph /  16.6km/h 13.2mph /  21.2km/h 62% 0in /  0.0mm
13:44 49.3 °F /  9.6 °C 36.3 °F /  2.4 °C 30.2in /  1021.9hPa ESE 13mph /  20.9km/h 13.2mph /  21.2km/h 61% 0in /  0.0mm
13:49 49.5 °F /  9.7 °C 36.7 °F /  2.6 °C 30.2in /  1021.9hPa East 10.3mph /  16.6km/h 13.2mph /  21.2km/h 61% 0in /  0.0mm
13:54 49.5 °F /  9.7 °C 35.8 °F /  2.1 °C 30.2in /  1020.9hPa East 12.8mph /  20.6km/h 13.4mph /  21.6km/h 59% 0in /  0.0mm
13:59 49.6 °F /  9.8 °C 36.3 °F /  2.4 °C 30.2in /  1020.9hPa East 10.7mph /  17.2km/h 13.4mph /  21.6km/h 60% 0in /  0.0mm
14:04 49.8 °F /  9.9 °C 35.6 °F /  2.0 °C 30.2in /  1020.9hPa East 10.7mph /  17.2km/h 13mph /  20.9km/h 58% 0in /  0.0mm
14:09 50 °F /  10.0 °C 36.1 °F /  2.3 °C 30.2in /  1020.9hPa ESE 8.5mph /  13.7km/h 13.2mph /  21.2km/h 59% 0in /  0.0mm
14:14 50.2 °F /  10.1 °C 36.3 °F /  2.4 °C 30.2in /  1020.9hPa East 8.1mph /  13.0km/h 13.4mph /  21.6km/h 59% 0in /  0.0mm
14:19 50.4 °F /  10.2 °C 36.1 °F /  2.3 °C 30.2in /  1020.9hPa ENE 8.5mph /  13.7km/h 14.8mph /  23.8km/h 58% 0in /  0.0mm
14:24 50.4 °F /  10.2 °C 36.1 °F /  2.3 °C 30.2in /  1020.9hPa East 11.2mph /  18.0km/h 14.8mph /  23.8km/h 58% 0in /  0.0mm
14:29 50.4 °F /  10.2 °C 36.1 °F /  2.3 °C 30.2in /  1020.9hPa East 10.3mph /  16.6km/h 15.2mph /  24.5km/h 58% 0in /  0.0mm
14:34 50.7 °F /  10.4 °C 36.3 °F /  2.4 °C 30.2in /  1020.9hPa East 12.5mph /  20.1km/h 15.2mph /  24.5km/h 58% 0in /  0.0mm
14:39 50.5 °F /  10.3 °C 35.4 °F /  1.9 °C 30.2in /  1020.9hPa East 10.7mph /  17.2km/h 13mph /  20.9km/h 56% 0in /  0.0mm
14:44 50.5 °F /  10.3 °C 35.4 °F /  1.9 °C 30.2in /  1020.9hPa East 10.7mph /  17.2km/h 13mph /  20.9km/h 56% 0in /  0.0mm
14:49 50.5 °F /  10.3 °C 34.9 °F /  1.6 °C 30.2in /  1020.9hPa East 12.5mph /  20.1km/h 12.5mph /  20.1km/h 55% 0in /  0.0mm
14:55 50.7 °F /  10.4 °C 35.6 °F /  2.0 °C 30.2in /  1020.9hPa East 7.2mph /  11.6km/h 13.6mph /  21.9km/h 56% 0in /  0.0mm
15:00 50.7 °F /  10.4 °C 35.6 °F /  2.0 °C 30.2in /  1020.9hPa ESE 10.3mph /  16.6km/h 13.6mph /  21.9km/h 56% 0in /  0.0mm
15:05 50.9 °F /  10.5 °C 35.8 °F /  2.1 °C 30.2in /  1020.9hPa East 10.3mph /  16.6km/h 12.5mph /  20.1km/h 56% 0in /  0.0mm
15:10 50.9 °F /  10.5 °C 35.8 °F /  2.1 °C 30.1in /  1019.9hPa East 11mph /  17.7km/h 13.2mph /  21.2km/h 56% 0in /  0.0mm
15:15 51.1 °F /  10.6 °C 36.3 °F /  2.4 °C 30.1in /  1019.9hPa NE 5.4mph /  8.7km/h 13.2mph /  21.2km/h 57% 0in /  0.0mm
15:20 51.3 °F /  10.7 °C 36.5 °F /  2.5 °C 30.1in /  1019.9hPa East 6mph /  9.7km/h 12.5mph /  20.1km/h 57% 0in /  0.0mm
15:25 51.1 °F /  10.6 °C 36 °F /  2.2 °C 30.1in /  1019.9hPa ESE 8.5mph /  13.7km/h 12.5mph /  20.1km/h 56% 0in /  0.0mm
15:30 50.9 °F /  10.5 °C 35.2 °F /  1.8 °C 30.1in /  1019.9hPa East 7.6mph /  12.2km/h 13.6mph /  21.9km/h 55% 0in /  0.0mm
15:35 51.1 °F /  10.6 °C 36 °F /  2.2 °C 30.1in /  1019.9hPa East 7.8mph /  12.6km/h 13.6mph /  21.9km/h 56% 0in /  0.0mm
15:40 51.1 °F /  10.6 °C 36 °F /  2.2 °C 30.2in /  1020.9hPa ENE 10.3mph /  16.6km/h 12.8mph /  20.6km/h 56% 0in /  0.0mm
15:45 51.1 °F /  10.6 °C 36.3 °F /  2.4 °C 30.2in /  1020.9hPa East 6.5mph /  10.5km/h 12.8mph /  20.6km/h 57% 0in /  0.0mm
15:50 51.3 °F /  10.7 °C 36.9 °F /  2.7 °C 30.2in /  1020.9hPa ENE 10.1mph /  16.3km/h 10.7mph /  17.2km/h 58% 0in /  0.0mm
15:55 50.9 °F /  10.5 °C 36.7 °F /  2.6 °C 30.2in /  1020.9hPa ENE 10.1mph /  16.3km/h 12.5mph /  20.1km/h 58% 0in /  0.0mm
16:00 50.9 °F /  10.5 °C 36.1 °F /  2.3 °C 30.2in /  1020.9hPa East 10.5mph /  16.9km/h 14.8mph /  23.8km/h 57% 0in /  0.0mm
16:05 50.7 °F /  10.4 °C 36 °F /  2.2 °C 30.2in /  1020.9hPa East 7.8mph /  12.6km/h 14.8mph /  23.8km/h 57% 0in /  0.0mm
16:10 50.5 °F /  10.3 °C 36.3 °F /  2.4 °C 30.2in /  1020.9hPa East 10.7mph /  17.2km/h 12.1mph /  19.5km/h 58% 0in /  0.0mm
16:15 50.2 °F /  10.1 °C 36.3 °F /  2.4 °C 30.2in /  1020.9hPa ENE 6.5mph /  10.5km/h 13mph /  20.9km/h 59% 0in /  0.0mm
16:20 50 °F /  10.0 °C 36.1 °F /  2.3 °C 30.2in /  1020.9hPa East 10.3mph /  16.6km/h 13mph /  20.9km/h 59% 0in /  0.0mm
16:25 49.8 °F /  9.9 °C 36.5 °F /  2.5 °C 30.2in /  1020.9hPa NE 5.8mph /  9.3km/h 12.3mph /  19.8km/h 60% 0in /  0.0mm
16:30 49.6 °F /  9.8 °C 36.3 °F /  2.4 °C 30.2in /  1020.9hPa NE 7.8mph /  12.6km/h 12.8mph /  20.6km/h 60% 0in /  0.0mm
16:35 49.3 °F /  9.6 °C 36 °F /  2.2 °C 30.2in /  1020.9hPa ENE 8.5mph /  13.7km/h 12.8mph /  20.6km/h 60% 0in /  0.0mm
16:40 49.1 °F /  9.5 °C 35.8 °F /  2.1 °C 30.2in /  1020.9hPa East 7.6mph /  12.2km/h 10.5mph /  16.9km/h 60% 0in /  0.0mm
16:45 48.9 °F /  9.4 °C 36.1 °F /  2.3 °C 30.2in /  1020.9hPa NE 8.9mph /  14.3km/h 11mph /  17.7km/h 61% 0in /  0.0mm
16:50 48.7 °F /  9.3 °C 36.3 °F /  2.4 °C 30.2in /  1020.9hPa East 8.5mph /  13.7km/h 11mph /  17.7km/h 62% 0in /  0.0mm
16:55 48.4 °F /  9.1 °C 36 °F /  2.2 °C 30.1in /  1019.9hPa East 6.3mph /  10.1km/h 10.7mph /  17.2km/h 62% 0in /  0.0mm
17:01 48.2 °F /  9.0 °C 36.1 °F /  2.3 °C 30.1in /  1019.9hPa East 10.5mph /  16.9km/h 12.8mph /  20.6km/h 63% 0in /  0.0mm
17:06 48 °F /  8.9 °C 35.6 °F /  2.0 °C 30.1in /  1019.9hPa NE 6.3mph /  10.1km/h 12.8mph /  20.6km/h 62% 0in /  0.0mm
17:11 47.8 °F /  8.8 °C 35.4 °F /  1.9 °C 30.2in /  1020.9hPa East 10.7mph /  17.2km/h 13.2mph /  21.2km/h 62% 0in /  0.0mm
17:16 47.5 °F /  8.6 °C 35.1 °F /  1.7 °C 30.2in /  1020.9hPa ESE 11mph /  17.7km/h 13.2mph /  21.2km/h 62% 0in /  0.0mm
17:21 47.3 °F /  8.5 °C 35.4 °F /  1.9 °C 30.2in /  1020.9hPa ESE 10.7mph /  17.2km/h 11.2mph /  18.0km/h 63% 0in /  0.0mm
17:26 47.1 °F /  8.4 °C 35.6 °F /  2.0 °C 30.2in /  1020.9hPa East 9.8mph /  15.8km/h 12.5mph /  20.1km/h 64% 0in /  0.0mm
17:31 46.9 °F /  8.3 °C 35.8 °F /  2.1 °C 30.2in /  1020.9hPa East 7.6mph /  12.2km/h 12.5mph /  20.1km/h 65% 0in /  0.0mm
17:36 46.6 °F /  8.1 °C 36 °F /  2.2 °C 30.2in /  1020.9hPa East 4.9mph /  7.9km/h 12.5mph /  20.1km/h 66% 0in /  0.0mm
17:41 46.6 °F /  8.1 °C 35.8 °F /  2.1 °C 30.2in /  1020.9hPa East 5.8mph /  9.3km/h 12.5mph /  20.1km/h 66% 0in /  0.0mm
17:46 46 °F /  7.8 °C 35.4 °F /  1.9 °C 30.2in /  1020.9hPa East 10.3mph /  16.6km/h 12.1mph /  19.5km/h 66% 0in /  0.0mm
17:51 45.9 °F /  7.7 °C 35.4 °F /  1.9 °C 30.2in /  1020.9hPa East 10.3mph /  16.6km/h 12.3mph /  19.8km/h 67% 0in /  0.0mm
17:56 45.7 °F /  7.6 °C 35.2 °F /  1.8 °C 30.2in /  1020.9hPa NE 7.8mph /  12.6km/h 12.8mph /  20.6km/h 67% 0in /  0.0mm
18:01 45.1 °F /  7.3 °C 35.2 °F /  1.8 °C 30.2in /  1020.9hPa ENE 14.8mph /  23.8km/h 14.8mph /  23.8km/h 68% 0in /  0.0mm
18:06 45.1 °F /  7.3 °C 35.1 °F /  1.7 °C 30.2in /  1020.9hPa East 7.4mph /  11.9km/h 14.8mph /  23.8km/h 68% 0in /  0.0mm
18:11 44.8 °F /  7.1 °C 34.9 °F /  1.6 °C 30.2in /  1020.9hPa NE 11mph /  17.7km/h 14.8mph /  23.8km/h 68% 0in /  0.0mm
18:16 44.4 °F /  6.9 °C 34.5 °F /  1.4 °C 30.2in /  1020.9hPa East 10.1mph /  16.3km/h 12.1mph /  19.5km/h 68% 0in /  0.0mm
18:21 44.2 °F /  6.8 °C 34.9 °F /  1.6 °C 30.2in /  1020.9hPa East 12.5mph /  20.1km/h 12.5mph /  20.1km/h 69% 0in /  0.0mm
18:26 44.1 °F /  6.7 °C 34.5 °F /  1.4 °C 30.2in /  1020.9hPa NE 7.6mph /  12.2km/h 12.5mph /  20.1km/h 69% 0in /  0.0mm
18:31 43.9 °F /  6.6 °C 34.7 °F /  1.5 °C 30.2in /  1020.9hPa NE 6.3mph /  10.1km/h 12.5mph /  20.1km/h 70% 0in /  0.0mm
18:36 43.9 °F /  6.6 °C 34.7 °F /  1.5 °C 30.2in /  1020.9hPa East 8.7mph /  14.0km/h 13mph /  20.9km/h 70% 0in /  0.0mm
18:41 43.5 °F /  6.4 °C 34.5 °F /  1.4 °C 30.2in /  1020.9hPa East 11mph /  17.7km/h 17.4mph /  28.0km/h 70% 0in /  0.0mm
18:46 43.5 °F /  6.4 °C 34.3 °F /  1.3 °C 30.2in /  1020.9hPa East 8.5mph /  13.7km/h 17.4mph /  28.0km/h 70% 0in /  0.0mm
18:51 43.3 °F /  6.3 °C 34.2 °F /  1.2 °C 30.2in /  1020.9hPa ENE 6mph /  9.7km/h 13.4mph /  21.6km/h 70% 0in /  0.0mm
18:56 43.2 °F /  6.2 °C 34.3 °F /  1.3 °C 30.2in /  1020.9hPa East 5.8mph /  9.3km/h 13mph /  20.9km/h 71% 0in /  0.0mm
19:01 43 °F /  6.1 °C 34.2 °F /  1.2 °C 30.2in /  1020.9hPa NE 5.4mph /  8.7km/h 12.8mph /  20.6km/h 71% 0in /  0.0mm
19:06 42.8 °F /  6.0 °C 34 °F /  1.1 °C 30.2in /  1020.9hPa East 7.4mph /  11.9km/h 12.5mph /  20.1km/h 71% 0in /  0.0mm
19:11 42.6 °F /  5.9 °C 33.8 °F /  1.0 °C 30.2in /  1020.9hPa East 7.6mph /  12.2km/h 12.5mph /  20.1km/h 71% 0in /  0.0mm
19:16 42.4 °F /  5.8 °C 34 °F /  1.1 °C 30.2in /  1020.9hPa East 10.1mph /  16.3km/h 10.5mph /  16.9km/h 72% 0in /  0.0mm
19:21 42.3 °F /  5.7 °C 33.8 °F /  1.0 °C 30.2in /  1020.9hPa East 6.5mph /  10.5km/h 11.2mph /  18.0km/h 72% 0in /  0.0mm
19:26 42.3 °F /  5.7 °C 34.2 °F /  1.2 °C 30.2in /  1020.9hPa ENE 5.4mph /  8.7km/h 11.2mph /  18.0km/h 73% 0in /  0.0mm
19:31 42.1 °F /  5.6 °C 34 °F /  1.1 °C 30.2in /  1020.9hPa East 4.3mph /  6.9km/h 10.3mph /  16.6km/h 73% 0in /  0.0mm
19:36 41.9 °F /  5.5 °C 34 °F /  1.1 °C 30.2in /  1020.9hPa East 7.6mph /  12.2km/h 8.7mph /  14.0km/h 73% 0in /  0.0mm
19:41 41.7 °F /  5.4 °C 34 °F /  1.1 °C 30.2in /  1020.9hPa East 5.4mph /  8.7km/h 8.7mph /  14.0km/h 74% 0in /  0.0mm
19:46 41.7 °F /  5.4 °C 34 °F /  1.1 °C 30.2in /  1020.9hPa NNE 5.8mph /  9.3km/h 8.5mph /  13.7km/h 74% 0in /  0.0mm
19:51 41.5 °F /  5.3 °C 34 °F /  1.1 °C 30.2in /  1020.9hPa ENE 5.8mph /  9.3km/h 11mph /  17.7km/h 74% 0in /  0.0mm
19:56 41.7 °F /  5.4 °C 34 °F /  1.1 °C 30.2in /  1020.9hPa East 10.1mph /  16.3km/h 11mph /  17.7km/h 74% 0in /  0.0mm
20:01 41.7 °F /  5.4 °C 34 °F /  1.1 °C 30.2in /  1020.9hPa ESE 6.5mph /  10.5km/h 10.1mph /  16.3km/h 74% 0in /  0.0mm
20:06 41.7 °F /  5.4 °C 34 °F /  1.1 °C 30.2in /  1020.9hPa ENE 6.3mph /  10.1km/h 10.3mph /  16.6km/h 74% 0in /  0.0mm
20:11 41.7 °F /  5.4 °C 34 °F /  1.1 °C 30.2in /  1020.9hPa East 12.8mph /  20.6km/h 12.8mph /  20.6km/h 74% 0in /  0.0mm
20:16 41.7 °F /  5.4 °C 34 °F /  1.1 °C 30.2in /  1020.9hPa ENE 6mph /  9.7km/h 12.8mph /  20.6km/h 74% 0in /  0.0mm
20:21 41.7 °F /  5.4 °C 34 °F /  1.1 °C 30.2in /  1020.9hPa ESE 6.5mph /  10.5km/h 12.8mph /  20.6km/h 74% 0in /  0.0mm
20:26 41.9 °F /  5.5 °C 34.2 °F /  1.2 °C 30.2in /  1020.9hPa East 8.5mph /  13.7km/h 11.9mph /  19.1km/h 74% 0in /  0.0mm
20:31 41.9 °F /  5.5 °C 34 °F /  1.1 °C 30.2in /  1020.9hPa ENE 8.5mph /  13.7km/h 12.3mph /  19.8km/h 73% 0in /  0.0mm
20:36 41.7 °F /  5.4 °C 33.6 °F /  0.9 °C 30.2in /  1020.9hPa East 8.5mph /  13.7km/h 12.3mph /  19.8km/h 73% 0in /  0.0mm
20:41 41.7 °F /  5.4 °C 33.6 °F /  0.9 °C 30.2in /  1020.9hPa East 10.3mph /  16.6km/h 12.3mph /  19.8km/h 73% 0in /  0.0mm
20:46 41.5 °F /  5.3 °C 33.4 °F /  0.8 °C 30.2in /  1020.9hPa East 5.4mph /  8.7km/h 12.3mph /  19.8km/h 73% 0in /  0.0mm
20:51 41.4 °F /  5.2 °C 33.3 °F /  0.7 °C 30.2in /  1020.9hPa ESE 6.3mph /  10.1km/h 10.5mph /  16.9km/h 73% 0in /  0.0mm
20:56 41.4 °F /  5.2 °C 33.3 °F /  0.7 °C 30.2in /  1020.9hPa East 7.4mph /  11.9km/h 10.3mph /  16.6km/h 73% 0in /  0.0mm
21:02 41.4 °F /  5.2 °C 33.6 °F /  0.9 °C 30.2in /  1020.9hPa ENE 6mph /  9.7km/h 10.5mph /  16.9km/h 74% 0in /  0.0mm
21:07 41.2 °F /  5.1 °C 33.4 °F /  0.8 °C 30.2in /  1020.9hPa East 12.1mph /  19.5km/h 12.1mph /  19.5km/h 74% 0in /  0.0mm
21:12 41.2 °F /  5.1 °C 33.4 °F /  0.8 °C 30.2in /  1020.9hPa East 6.5mph /  10.5km/h 12.1mph /  19.5km/h 74% 0in /  0.0mm
21:17 41 °F /  5.0 °C 33.1 °F /  0.6 °C 30.2in /  1020.9hPa East 10.3mph /  16.6km/h 10.3mph /  16.6km/h 73% 0in /  0.0mm
21:22 41.2 °F /  5.1 °C 33.4 °F /  0.8 °C 30.2in /  1020.9hPa ESE 6mph /  9.7km/h 10.7mph /  17.2km/h 74% 0in /  0.0mm
21:27 41 °F /  5.0 °C 33.1 °F /  0.6 °C 30.2in /  1021.9hPa SE 3.8mph /  6.1km/h 10.7mph /  17.2km/h 73% 0in /  0.0mm
21:32 41 °F /  5.0 °C 33.3 °F /  0.7 °C 30.2in /  1021.9hPa East 3.6mph /  5.8km/h 9.8mph /  15.8km/h 74% 0in /  0.0mm
21:37 40.8 °F /  4.9 °C 33.3 °F /  0.7 °C 30.2in /  1021.9hPa East 6.3mph /  10.1km/h 9.8mph /  15.8km/h 74% 0in /  0.0mm
21:42 40.6 °F /  4.8 °C 33.1 °F /  0.6 °C 30.2in /  1021.9hPa ESE 2.2mph /  3.5km/h 8.7mph /  14.0km/h 74% 0in /  0.0mm
21:47 40.6 °F /  4.8 °C 33.1 °F /  0.6 °C 30.2in /  1021.9hPa ESE 6.7mph /  10.8km/h 10.1mph /  16.3km/h 74% 0in /  0.0mm
21:52 40.5 °F /  4.7 °C 32.7 °F /  0.4 °C 30.2in /  1021.9hPa ESE 5.8mph /  9.3km/h 10.1mph /  16.3km/h 74% 0in /  0.0mm
21:57 40.5 °F /  4.7 °C 33.3 °F /  0.7 °C 30.2in /  1021.9hPa East 8.5mph /  13.7km/h 8.7mph /  14.0km/h 75% 0in /  0.0mm
22:02 40.3 °F /  4.6 °C 32.7 °F /  0.4 °C 30.2in /  1021.9hPa ENE 5.6mph /  9.0km/h 8.7mph /  14.0km/h 74% 0in /  0.0mm
22:07 40.3 °F /  4.6 °C 32.7 °F /  0.4 °C 30.2in /  1021.9hPa East 4.3mph /  6.9km/h 8.5mph /  13.7km/h 74% 0in /  0.0mm
22:12 40.1 °F /  4.5 °C 32.7 °F /  0.4 °C 30.2in /  1021.9hPa ESE 4.3mph /  6.9km/h 7.8mph /  12.6km/h 75% 0in /  0.0mm
22:17 39.9 °F /  4.4 °C 32.7 °F /  0.4 °C 30.2in /  1021.9hPa ENE 5.6mph /  9.0km/h 7.8mph /  12.6km/h 75% 0in /  0.0mm
22:22 39.7 °F /  4.3 °C 32.5 °F /  0.3 °C 30.2in /  1021.9hPa ESE 4mph /  6.4km/h 7.2mph /  11.6km/h 75% 0in /  0.0mm
22:27 39.6 °F /  4.2 °C 32.4 °F /  0.2 °C 30.2in /  1021.9hPa East 4.3mph /  6.9km/h 7.2mph /  11.6km/h 75% 0in /  0.0mm
22:32 39.4 °F /  4.1 °C 32.2 °F /  0.1 °C 30.2in /  1021.9hPa East 2.5mph /  4.0km/h 5.6mph /  9.0km/h 75% 0in /  0.0mm
22:37 39.2 °F /  4.0 °C 32 °F /  0.0 °C 30.2in /  1021.9hPa East 3.6mph /  5.8km/h 6.5mph /  10.5km/h 75% 0in /  0.0mm
22:42 39 °F /  3.9 °C 31.8 °F /  -0.1 °C 30.2in /  1021.9hPa NE 3.8mph /  6.1km/h 6.5mph /  10.5km/h 75% 0in /  0.0mm
22:47 38.7 °F /  3.7 °C 31.8 °F /  -0.1 °C 30.2in /  1021.9hPa East 1.6mph /  2.6km/h 6mph /  9.7km/h 76% 0in /  0.0mm
22:52 38.5 °F /  3.6 °C 31.6 °F /  -0.2 °C 30.2in /  1021.9hPa ENE 0.9mph /  1.4km/h 6mph /  9.7km/h 76% 0in /  0.0mm
22:57 38.5 °F /  3.6 °C 31.5 °F /  -0.3 °C 30.2in /  1021.9hPa East 5.4mph /  8.7km/h 5.8mph /  9.3km/h 76% 0in /  0.0mm
23:02 37.9 °F /  3.3 °C 31.1 °F /  -0.5 °C 30.2in /  1021.9hPa ENE 3.6mph /  5.8km/h 5.8mph /  9.3km/h 76% 0in /  0.0mm
23:07 37.8 °F /  3.2 °C 31.3 °F /  -0.4 °C 30.2in /  1021.9hPa ENE 4mph /  6.4km/h 6.3mph /  10.1km/h 77% 0in /  0.0mm
23:12 37.8 °F /  3.2 °C 31.3 °F /  -0.4 °C 30.2in /  1021.9hPa East 4.7mph /  7.6km/h 6.3mph /  10.1km/h 77% 0in /  0.0mm
23:17 37.8 °F /  3.2 °C 31.6 °F /  -0.2 °C 30.2in /  1021.9hPa NE 4.9mph /  7.9km/h 6.3mph /  10.1km/h 78% 0in /  0.0mm
23:22 37.8 °F /  3.2 °C 31.6 °F /  -0.2 °C 30.2in /  1020.9hPa East 4.7mph /  7.6km/h 6.3mph /  10.1km/h 78% 0in /  0.0mm
23:27 37.8 °F /  3.2 °C 31.6 °F /  -0.2 °C 30.2in /  1020.9hPa ESE 4.5mph /  7.2km/h 6.3mph /  10.1km/h 78% 0in /  0.0mm
23:32 37.8 °F /  3.2 °C 31.6 °F /  -0.2 °C 30.2in /  1020.9hPa East 4.9mph /  7.9km/h 6.7mph /  10.8km/h 78% 0in /  0.0mm
23:37 37.8 °F /  3.2 °C 31.6 °F /  -0.2 °C 30.2in /  1020.9hPa East 5.8mph /  9.3km/h 6.7mph /  10.8km/h 78% 0in /  0.0mm
23:42 37.6 °F /  3.1 °C 31.5 °F /  -0.3 °C 30.2in /  1020.9hPa ENE 4.3mph /  6.9km/h 6.3mph /  10.1km/h 78% 0in /  0.0mm
23:47 37.6 °F /  3.1 °C 31.6 °F /  -0.2 °C 30.2in /  1020.9hPa East 4mph /  6.4km/h 7.2mph /  11.6km/h 79% 0in /  0.0mm
23:52 37.6 °F /  3.1 °C 31.6 °F /  -0.2 °C 30.2in /  1020.9hPa East 5.8mph /  9.3km/h 8.7mph /  14.0km/h 79% 0in /  0.0mm
23:57 37.6 °F /  3.1 °C 31.6 °F /  -0.2 °C 30.2in /  1020.9hPa East 3.8mph /  6.1km/h 8.7mph /  14.0km/h 79% 0in /  0.0mm
Données Historique de Météo Turbie

Mise a jour : 20/05/2018 15:56:12
Généré par Cumulus 1.9.4 (1099)